sensor_id;sensor_type;location;lat;lon;timestamp;P1;durP1;ratioP1;P2;durP2;ratioP2
50757;SDS011;36732;47.980;11.652;2023-12-20T00:01:01;2.55;;;1.38;;
50757;SDS011;36732;47.980;11.652;2023-12-20T00:03:27;1.85;;;1.50;;
50757;SDS011;36732;47.980;11.652;2023-12-20T00:05:52;1.30;;;1.20;;
50757;SDS011;36732;47.980;11.652;2023-12-20T00:08:18;4.18;;;1.65;;
50757;SDS011;36732;47.980;11.652;2023-12-20T00:10:44;1.83;;;1.40;;
50757;SDS011;36732;47.980;11.652;2023-12-20T00:13:10;2.22;;;1.63;;
50757;SDS011;36732;47.980;11.652;2023-12-20T00:15:36;1.60;;;1.40;;
50757;SDS011;36732;47.980;11.652;2023-12-20T00:18:01;2.25;;;1.73;;
50757;SDS011;36732;47.980;11.652;2023-12-20T00:20:28;2.15;;;1.70;;
50757;SDS011;36732;47.980;11.652;2023-12-20T00:22:57;2.05;;;1.65;;
50757;SDS011;36732;47.980;11.652;2023-12-20T00:25:23;3.53;;;1.77;;
50757;SDS011;36732;47.980;11.652;2023-12-20T00:27:49;2.70;;;1.83;;
50757;SDS011;36732;47.980;11.652;2023-12-20T00:30:15;1.50;;;1.40;;
50757;SDS011;36732;47.980;11.652;2023-12-20T00:32:41;1.98;;;1.55;;
50757;SDS011;36732;47.980;11.652;2023-12-20T00:35:13;2.03;;;1.33;;
50757;SDS011;36732;47.980;11.652;2023-12-20T00:37:40;2.42;;;1.67;;
50757;SDS011;36732;47.980;11.652;2023-12-20T00:40:06;1.67;;;1.42;;
50757;SDS011;36732;47.980;11.652;2023-12-20T00:42:32;2.28;;;1.60;;
50757;SDS011;36732;47.980;11.652;2023-12-20T00:44:59;1.95;;;1.30;;
50757;SDS011;36732;47.980;11.652;2023-12-20T00:47:25;1.50;;;1.40;;
50757;SDS011;36732;47.980;11.652;2023-12-20T00:49:51;2.00;;;1.60;;
50757;SDS011;36732;47.980;11.652;2023-12-20T00:52:17;1.80;;;1.30;;
50757;SDS011;36732;47.980;11.652;2023-12-20T00:54:43;2.28;;;1.70;;
50757;SDS011;36732;47.980;11.652;2023-12-20T00:57:09;2.35;;;1.70;;
50757;SDS011;36732;47.980;11.652;2023-12-20T00:59:35;2.30;;;1.70;;
50757;SDS011;36732;47.980;11.652;2023-12-20T01:02:01;1.50;;;1.40;;
50757;SDS011;36732;47.980;11.652;2023-12-20T01:04:27;1.90;;;1.70;;
50757;SDS011;36732;47.980;11.652;2023-12-20T01:06:53;1.60;;;1.50;;
50757;SDS011;36732;47.980;11.652;2023-12-20T01:09:19;1.52;;;1.42;;
50757;SDS011;36732;47.980;11.652;2023-12-20T01:11:45;2.78;;;1.70;;
50757;SDS011;36732;47.980;11.652;2023-12-20T01:14:13;2.08;;;1.63;;
50757;SDS011;36732;47.980;11.652;2023-12-20T01:16:39;2.40;;;1.77;;
50757;SDS011;36732;47.980;11.652;2023-12-20T01:19:04;1.70;;;1.45;;
50757;SDS011;36732;47.980;11.652;2023-12-20T01:21:30;2.00;;;1.60;;
50757;SDS011;36732;47.980;11.652;2023-12-20T01:23:56;2.60;;;1.63;;
50757;SDS011;36732;47.980;11.652;2023-12-20T01:26:21;2.10;;;1.77;;
50757;SDS011;36732;47.980;11.652;2023-12-20T01:28:47;2.90;;;1.80;;
50757;SDS011;36732;47.980;11.652;2023-12-20T01:31:13;2.22;;;1.80;;
50757;SDS011;36732;47.980;11.652;2023-12-20T01:33:39;2.40;;;1.83;;
50757;SDS011;36732;47.980;11.652;2023-12-20T01:36:04;2.22;;;1.80;;
50757;SDS011;36732;47.980;11.652;2023-12-20T01:38:30;3.40;;;1.63;;
50757;SDS011;36732;47.980;11.652;2023-12-20T01:40:56;1.77;;;1.45;;
50757;SDS011;36732;47.980;11.652;2023-12-20T01:43:21;1.77;;;1.52;;
50757;SDS011;36732;47.980;11.652;2023-12-20T01:45:47;2.60;;;1.55;;
50757;SDS011;36732;47.980;11.652;2023-12-20T01:48:13;2.40;;;1.80;;
50757;SDS011;36732;47.980;11.652;2023-12-20T01:50:41;2.22;;;1.83;;
50757;SDS011;36732;47.980;11.652;2023-12-20T01:53:08;1.95;;;1.70;;
50757;SDS011;36732;47.980;11.652;2023-12-20T01:55:38;2.30;;;2.10;;
50757;SDS011;36732;47.980;11.652;2023-12-20T01:58:05;2.50;;;2.10;;
50757;SDS011;36732;47.980;11.652;2023-12-20T02:00:35;2.53;;;1.80;;
50757;SDS011;36732;47.980;11.652;2023-12-20T02:03:02;3.00;;;1.80;;
50757;SDS011;36732;47.980;11.652;2023-12-20T02:05:32;2.75;;;2.05;;
50757;SDS011;36732;47.980;11.652;2023-12-20T02:08:00;3.60;;;1.85;;
50757;SDS011;36732;47.980;11.652;2023-12-20T02:10:26;2.55;;;1.95;;
50757;SDS011;36732;47.980;11.652;2023-12-20T02:12:52;2.00;;;1.70;;
50757;SDS011;36732;47.980;11.652;2023-12-20T02:15:18;1.88;;;1.70;;
50757;SDS011;36732;47.980;11.652;2023-12-20T02:17:43;2.85;;;2.08;;
50757;SDS011;36732;47.980;11.652;2023-12-20T02:20:11;2.70;;;1.70;;
50757;SDS011;36732;47.980;11.652;2023-12-20T02:22:37;3.92;;;2.10;;
50757;SDS011;36732;47.980;11.652;2023-12-20T02:25:03;1.50;;;1.38;;
50757;SDS011;36732;47.980;11.652;2023-12-20T02:27:29;2.60;;;2.08;;
50757;SDS011;36732;47.980;11.652;2023-12-20T02:29:55;1.92;;;1.67;;
50757;SDS011;36732;47.980;11.652;2023-12-20T02:32:21;5.03;;;1.67;;
50757;SDS011;36732;47.980;11.652;2023-12-20T02:34:51;2.33;;;1.75;;
50757;SDS011;36732;47.980;11.652;2023-12-20T02:37:16;3.00;;;1.85;;
50757;SDS011;36732;47.980;11.652;2023-12-20T02:39:42;2.80;;;2.00;;
50757;SDS011;36732;47.980;11.652;2023-12-20T02:42:08;4.35;;;2.95;;
50757;SDS011;36732;47.980;11.652;2023-12-20T02:44:34;4.63;;;2.75;;
50757;SDS011;36732;47.980;11.652;2023-12-20T02:47:00;4.22;;;3.00;;
50757;SDS011;36732;47.980;11.652;2023-12-20T02:49:25;3.65;;;2.20;;
50757;SDS011;36732;47.980;11.652;2023-12-20T02:51:51;2.65;;;1.73;;
50757;SDS011;36732;47.980;11.652;2023-12-20T02:54:17;2.10;;;1.90;;
50757;SDS011;36732;47.980;11.652;2023-12-20T02:56:42;2.03;;;1.60;;
50757;SDS011;36732;47.980;11.652;2023-12-20T02:59:08;1.60;;;1.35;;
50757;SDS011;36732;47.980;11.652;2023-12-20T03:01:34;2.08;;;1.88;;
50757;SDS011;36732;47.980;11.652;2023-12-20T03:04:00;2.13;;;1.48;;
50757;SDS011;36732;47.980;11.652;2023-12-20T03:06:26;1.88;;;1.60;;
50757;SDS011;36732;47.980;11.652;2023-12-20T03:08:52;2.28;;;1.60;;
50757;SDS011;36732;47.980;11.652;2023-12-20T03:11:18;2.95;;;1.75;;
50757;SDS011;36732;47.980;11.652;2023-12-20T03:13:43;2.28;;;1.60;;
50757;SDS011;36732;47.980;11.652;2023-12-20T03:16:10;1.92;;;1.70;;
50757;SDS011;36732;47.980;11.652;2023-12-20T03:18:36;1.92;;;1.60;;
50757;SDS011;36732;47.980;11.652;2023-12-20T03:21:02;1.92;;;1.50;;
50757;SDS011;36732;47.980;11.652;2023-12-20T03:23:29;3.70;;;1.40;;
50757;SDS011;36732;47.980;11.652;2023-12-20T03:25:55;1.73;;;1.45;;
50757;SDS011;36732;47.980;11.652;2023-12-20T03:28:21;1.80;;;1.52;;
50757;SDS011;36732;47.980;11.652;2023-12-20T03:30:48;1.80;;;1.45;;
50757;SDS011;36732;47.980;11.652;2023-12-20T03:33:14;1.88;;;1.25;;
50757;SDS011;36732;47.980;11.652;2023-12-20T03:35:40;2.08;;;1.40;;
50757;SDS011;36732;47.980;11.652;2023-12-20T03:38:06;1.48;;;1.20;;
50757;SDS011;36732;47.980;11.652;2023-12-20T03:40:32;1.80;;;1.42;;
50757;SDS011;36732;47.980;11.652;2023-12-20T03:42:57;1.50;;;1.33;;
50757;SDS011;36732;47.980;11.652;2023-12-20T03:45:23;1.23;;;1.13;;
50757;SDS011;36732;47.980;11.652;2023-12-20T03:47:49;2.03;;;1.60;;
50757;SDS011;36732;47.980;11.652;2023-12-20T03:50:15;1.42;;;1.20;;
50757;SDS011;36732;47.980;11.652;2023-12-20T03:52:40;1.58;;;1.30;;
50757;SDS011;36732;47.980;11.652;2023-12-20T03:55:06;1.80;;;1.50;;
50757;SDS011;36732;47.980;11.652;2023-12-20T03:57:32;1.52;;;1.27;;
50757;SDS011;36732;47.980;11.652;2023-12-20T03:59:58;2.22;;;1.30;;
50757;SDS011;36732;47.980;11.652;2023-12-20T04:02:24;1.50;;;1.30;;
50757;SDS011;36732;47.980;11.652;2023-12-20T04:04:50;1.40;;;1.20;;
50757;SDS011;36732;47.980;11.652;2023-12-20T04:07:18;2.05;;;1.45;;
50757;SDS011;36732;47.980;11.652;2023-12-20T04:09:43;1.75;;;1.30;;
50757;SDS011;36732;47.980;11.652;2023-12-20T04:12:09;1.15;;;1.00;;
50757;SDS011;36732;47.980;11.652;2023-12-20T04:14:35;1.20;;;1.10;;
50757;SDS011;36732;47.980;11.652;2023-12-20T04:17:00;1.17;;;1.08;;
50757;SDS011;36732;47.980;11.652;2023-12-20T04:19:26;1.30;;;1.02;;
50757;SDS011;36732;47.980;11.652;2023-12-20T04:21:52;1.52;;;0.90;;
50757;SDS011;36732;47.980;11.652;2023-12-20T04:24:17;2.42;;;1.08;;
50757;SDS011;36732;47.980;11.652;2023-12-20T04:26:43;1.30;;;1.00;;
50757;SDS011;36732;47.980;11.652;2023-12-20T04:29:09;1.65;;;1.10;;
50757;SDS011;36732;47.980;11.652;2023-12-20T04:31:34;1.10;;;0.70;;
50757;SDS011;36732;47.980;11.652;2023-12-20T04:34:00;1.25;;;0.98;;
50757;SDS011;36732;47.980;11.652;2023-12-20T04:36:26;1.33;;;0.98;;
50757;SDS011;36732;47.980;11.652;2023-12-20T04:38:52;1.33;;;1.10;;
50757;SDS011;36732;47.980;11.652;2023-12-20T04:41:18;1.20;;;0.80;;
50757;SDS011;36732;47.980;11.652;2023-12-20T04:43:44;0.80;;;0.68;;
50757;SDS011;36732;47.980;11.652;2023-12-20T04:46:10;0.80;;;0.57;;
50757;SDS011;36732;47.980;11.652;2023-12-20T04:48:35;0.50;;;0.40;;
50757;SDS011;36732;47.980;11.652;2023-12-20T04:51:01;0.80;;;0.45;;
50757;SDS011;36732;47.980;11.652;2023-12-20T04:53:27;0.40;;;0.40;;
50757;SDS011;36732;47.980;11.652;2023-12-20T04:55:53;0.43;;;0.40;;
50757;SDS011;36732;47.980;11.652;2023-12-20T04:58:19;0.50;;;0.50;;
50757;SDS011;36732;47.980;11.652;2023-12-20T05:00:44;0.45;;;0.40;;
50757;SDS011;36732;47.980;11.652;2023-12-20T05:03:10;0.77;;;0.50;;
50757;SDS011;36732;47.980;11.652;2023-12-20T05:05:36;0.85;;;0.60;;
50757;SDS011;36732;47.980;11.652;2023-12-20T05:08:01;0.40;;;0.38;;
50757;SDS011;36732;47.980;11.652;2023-12-20T05:10:27;0.40;;;0.40;;
50757;SDS011;36732;47.980;11.652;2023-12-20T05:12:53;0.70;;;0.70;;
50757;SDS011;36732;47.980;11.652;2023-12-20T05:15:19;1.77;;;0.70;;
50757;SDS011;36732;47.980;11.652;2023-12-20T05:17:44;0.80;;;0.80;;
50757;SDS011;36732;47.980;11.652;2023-12-20T05:20:10;1.15;;;0.73;;
50757;SDS011;36732;47.980;11.652;2023-12-20T05:22:36;0.60;;;0.50;;
50757;SDS011;36732;47.980;11.652;2023-12-20T05:25:02;0.57;;;0.57;;
50757;SDS011;36732;47.980;11.652;2023-12-20T05:27:28;0.60;;;0.60;;
50757;SDS011;36732;47.980;11.652;2023-12-20T05:29:54;0.77;;;0.70;;
50757;SDS011;36732;47.980;11.652;2023-12-20T05:32:22;0.60;;;0.60;;
50757;SDS011;36732;47.980;11.652;2023-12-20T05:34:48;0.47;;;0.47;;
50757;SDS011;36732;47.980;11.652;2023-12-20T05:37:14;0.55;;;0.45;;
50757;SDS011;36732;47.980;11.652;2023-12-20T05:39:40;0.47;;;0.47;;
50757;SDS011;36732;47.980;11.652;2023-12-20T05:42:05;0.93;;;0.43;;
50757;SDS011;36732;47.980;11.652;2023-12-20T05:44:31;0.85;;;0.60;;
50757;SDS011;36732;47.980;11.652;2023-12-20T05:46:57;0.77;;;0.63;;
50757;SDS011;36732;47.980;11.652;2023-12-20T05:49:22;0.88;;;0.50;;
50757;SDS011;36732;47.980;11.652;2023-12-20T05:51:48;1.35;;;0.50;;
50757;SDS011;36732;47.980;11.652;2023-12-20T05:54:16;0.70;;;0.60;;
50757;SDS011;36732;47.980;11.652;2023-12-20T05:56:41;0.63;;;0.60;;
50757;SDS011;36732;47.980;11.652;2023-12-20T05:59:07;0.63;;;0.57;;
50757;SDS011;36732;47.980;11.652;2023-12-20T06:01:33;0.30;;;0.30;;
50757;SDS011;36732;47.980;11.652;2023-12-20T06:03:59;0.82;;;0.50;;
50757;SDS011;36732;47.980;11.652;2023-12-20T06:06:24;1.40;;;0.82;;
50757;SDS011;36732;47.980;11.652;2023-12-20T06:08:50;0.52;;;0.40;;
50757;SDS011;36732;47.980;11.652;2023-12-20T06:11:16;0.32;;;0.32;;
50757;SDS011;36732;47.980;11.652;2023-12-20T06:13:41;0.75;;;0.40;;
50757;SDS011;36732;47.980;11.652;2023-12-20T06:16:07;0.95;;;0.55;;
50757;SDS011;36732;47.980;11.652;2023-12-20T06:18:33;0.57;;;0.40;;
50757;SDS011;36732;47.980;11.652;2023-12-20T06:20:58;0.30;;;0.30;;
50757;SDS011;36732;47.980;11.652;2023-12-20T06:23:24;1.83;;;0.50;;
50757;SDS011;36732;47.980;11.652;2023-12-20T06:25:50;0.75;;;0.63;;
50757;SDS011;36732;47.980;11.652;2023-12-20T06:28:16;1.50;;;0.57;;
50757;SDS011;36732;47.980;11.652;2023-12-20T06:30:41;1.40;;;0.40;;
50757;SDS011;36732;47.980;11.652;2023-12-20T06:33:07;0.55;;;0.38;;
50757;SDS011;36732;47.980;11.652;2023-12-20T06:35:34;0.70;;;0.50;;
50757;SDS011;36732;47.980;11.652;2023-12-20T06:38:00;0.60;;;0.40;;
50757;SDS011;36732;47.980;11.652;2023-12-20T06:40:26;0.50;;;0.50;;
50757;SDS011;36732;47.980;11.652;2023-12-20T06:42:52;0.52;;;0.40;;
50757;SDS011;36732;47.980;11.652;2023-12-20T06:45:17;1.80;;;0.63;;
50757;SDS011;36732;47.980;11.652;2023-12-20T06:47:43;0.32;;;0.30;;
50757;SDS011;36732;47.980;11.652;2023-12-20T06:50:09;1.25;;;0.50;;
50757;SDS011;36732;47.980;11.652;2023-12-20T06:52:34;0.32;;;0.30;;
50757;SDS011;36732;47.980;11.652;2023-12-20T06:55:00;0.57;;;0.40;;
50757;SDS011;36732;47.980;11.652;2023-12-20T06:57:26;0.70;;;0.50;;
50757;SDS011;36732;47.980;11.652;2023-12-20T06:59:52;0.85;;;0.68;;
50757;SDS011;36732;47.980;11.652;2023-12-20T07:02:18;0.40;;;0.40;;
50757;SDS011;36732;47.980;11.652;2023-12-20T07:04:44;0.47;;;0.40;;
50757;SDS011;36732;47.980;11.652;2023-12-20T07:07:09;0.70;;;0.45;;
50757;SDS011;36732;47.980;11.652;2023-12-20T07:09:35;1.10;;;0.45;;
50757;SDS011;36732;47.980;11.652;2023-12-20T07:12:01;0.35;;;0.25;;
50757;SDS011;36732;47.980;11.652;2023-12-20T07:14:27;0.40;;;0.35;;
50757;SDS011;36732;47.980;11.652;2023-12-20T07:16:54;0.57;;;0.50;;
50757;SDS011;36732;47.980;11.652;2023-12-20T07:19:19;0.95;;;0.60;;
50757;SDS011;36732;47.980;11.652;2023-12-20T07:21:45;0.40;;;0.40;;
50757;SDS011;36732;47.980;11.652;2023-12-20T07:24:11;1.90;;;0.47;;
50757;SDS011;36732;47.980;11.652;2023-12-20T07:26:36;0.50;;;0.50;;
50757;SDS011;36732;47.980;11.652;2023-12-20T07:29:03;0.43;;;0.40;;
50757;SDS011;36732;47.980;11.652;2023-12-20T07:31:29;3.00;;;0.47;;
50757;SDS011;36732;47.980;11.652;2023-12-20T07:33:55;0.35;;;0.35;;
50757;SDS011;36732;47.980;11.652;2023-12-20T07:36:21;0.32;;;0.32;;
50757;SDS011;36732;47.980;11.652;2023-12-20T07:38:47;0.47;;;0.40;;
50757;SDS011;36732;47.980;11.652;2023-12-20T07:41:13;0.40;;;0.40;;
50757;SDS011;36732;47.980;11.652;2023-12-20T07:43:40;0.50;;;0.50;;
50757;SDS011;36732;47.980;11.652;2023-12-20T07:46:07;0.75;;;0.50;;
50757;SDS011;36732;47.980;11.652;2023-12-20T07:48:34;0.47;;;0.30;;
50757;SDS011;36732;47.980;11.652;2023-12-20T07:51:01;0.73;;;0.70;;
50757;SDS011;36732;47.980;11.652;2023-12-20T07:53:27;0.77;;;0.63;;
50757;SDS011;36732;47.980;11.652;2023-12-20T07:55:53;1.50;;;0.98;;
50757;SDS011;36732;47.980;11.652;2023-12-20T07:58:19;1.58;;;0.60;;
50757;SDS011;36732;47.980;11.652;2023-12-20T08:00:45;0.60;;;0.30;;
50757;SDS011;36732;47.980;11.652;2023-12-20T08:03:10;0.30;;;0.30;;
50757;SDS011;36732;47.980;11.652;2023-12-20T08:05:36;0.40;;;0.40;;
50757;SDS011;36732;47.980;11.652;2023-12-20T08:08:05;0.30;;;0.30;;
50757;SDS011;36732;47.980;11.652;2023-12-20T08:10:31;0.52;;;0.52;;
50757;SDS011;36732;47.980;11.652;2023-12-20T08:12:57;0.82;;;0.50;;
50757;SDS011;36732;47.980;11.652;2023-12-20T08:15:23;0.47;;;0.40;;
50757;SDS011;36732;47.980;11.652;2023-12-20T08:17:49;0.82;;;0.47;;
50757;SDS011;36732;47.980;11.652;2023-12-20T08:20:18;0.80;;;0.60;;
50757;SDS011;36732;47.980;11.652;2023-12-20T08:22:43;0.30;;;0.30;;
50757;SDS011;36732;47.980;11.652;2023-12-20T08:25:09;0.60;;;0.60;;
50757;SDS011;36732;47.980;11.652;2023-12-20T08:27:39;0.98;;;0.65;;
50757;SDS011;36732;47.980;11.652;2023-12-20T08:30:06;1.20;;;1.10;;
50757;SDS011;36732;47.980;11.652;2023-12-20T08:32:33;0.55;;;0.50;;
50757;SDS011;36732;47.980;11.652;2023-12-20T08:34:59;0.75;;;0.68;;
50757;SDS011;36732;47.980;11.652;2023-12-20T08:37:25;0.88;;;0.60;;
50757;SDS011;36732;47.980;11.652;2023-12-20T08:39:51;0.70;;;0.70;;
50757;SDS011;36732;47.980;11.652;2023-12-20T08:42:16;0.95;;;0.70;;
50757;SDS011;36732;47.980;11.652;2023-12-20T08:44:42;0.95;;;0.60;;
50757;SDS011;36732;47.980;11.652;2023-12-20T08:47:08;0.60;;;0.60;;
50757;SDS011;36732;47.980;11.652;2023-12-20T08:49:38;0.60;;;0.60;;
50757;SDS011;36732;47.980;11.652;2023-12-20T08:52:04;0.40;;;0.40;;
50757;SDS011;36732;47.980;11.652;2023-12-20T08:54:30;0.93;;;0.70;;
50757;SDS011;36732;47.980;11.652;2023-12-20T08:56:56;1.08;;;0.93;;
50757;SDS011;36732;47.980;11.652;2023-12-20T08:59:22;0.50;;;0.50;;
50757;SDS011;36732;47.980;11.652;2023-12-20T09:01:47;0.70;;;0.70;;
50757;SDS011;36732;47.980;11.652;2023-12-20T09:04:19;1.00;;;0.90;;
50757;SDS011;36732;47.980;11.652;2023-12-20T09:06:45;1.17;;;1.02;;
50757;SDS011;36732;47.980;11.652;2023-12-20T09:09:11;0.77;;;0.77;;
50757;SDS011;36732;47.980;11.652;2023-12-20T09:11:38;0.55;;;0.55;;
50757;SDS011;36732;47.980;11.652;2023-12-20T09:14:04;0.40;;;0.40;;
50757;SDS011;36732;47.980;11.652;2023-12-20T09:16:30;0.45;;;0.40;;
50757;SDS011;36732;47.980;11.652;2023-12-20T09:18:56;0.30;;;0.30;;
50757;SDS011;36732;47.980;11.652;2023-12-20T09:21:22;0.35;;;0.35;;
50757;SDS011;36732;47.980;11.652;2023-12-20T09:23:48;0.40;;;0.40;;
50757;SDS011;36732;47.980;11.652;2023-12-20T09:26:14;0.40;;;0.40;;
50757;SDS011;36732;47.980;11.652;2023-12-20T09:28:40;0.30;;;0.30;;
50757;SDS011;36732;47.980;11.652;2023-12-20T09:31:05;0.50;;;0.50;;
50757;SDS011;36732;47.980;11.652;2023-12-20T09:33:31;0.45;;;0.45;;
50757;SDS011;36732;47.980;11.652;2023-12-20T09:35:58;0.50;;;0.35;;
50757;SDS011;36732;47.980;11.652;2023-12-20T09:38:24;0.60;;;0.30;;
50757;SDS011;36732;47.980;11.652;2023-12-20T09:40:50;0.40;;;0.30;;
50757;SDS011;36732;47.980;11.652;2023-12-20T09:43:15;0.63;;;0.22;;
50757;SDS011;36732;47.980;11.652;2023-12-20T09:45:46;0.20;;;0.20;;
50757;SDS011;36732;47.980;11.652;2023-12-20T09:48:13;0.30;;;0.30;;
50757;SDS011;36732;47.980;11.652;2023-12-20T09:50:43;0.22;;;0.22;;
50757;SDS011;36732;47.980;11.652;2023-12-20T09:53:09;0.55;;;0.40;;
50757;SDS011;36732;47.980;11.652;2023-12-20T09:55:37;0.82;;;0.70;;
50757;SDS011;36732;47.980;11.652;2023-12-20T09:58:03;0.75;;;0.63;;
50757;SDS011;36732;47.980;11.652;2023-12-20T10:00:29;0.40;;;0.40;;
50757;SDS011;36732;47.980;11.652;2023-12-20T10:02:59;0.50;;;0.50;;
50757;SDS011;36732;47.980;11.652;2023-12-20T10:05:29;0.47;;;0.47;;
50757;SDS011;36732;47.980;11.652;2023-12-20T10:07:57;0.70;;;0.50;;
50757;SDS011;36732;47.980;11.652;2023-12-20T10:10:24;0.68;;;0.60;;
50757;SDS011;36732;47.980;11.652;2023-12-20T10:13:04;0.40;;;0.40;;
50757;SDS011;36732;47.980;11.652;2023-12-20T10:15:34;0.50;;;0.40;;
50757;SDS011;36732;47.980;11.652;2023-12-20T10:18:01;0.40;;;0.40;;
50757;SDS011;36732;47.980;11.652;2023-12-20T10:20:28;1.58;;;1.20;;
50757;SDS011;36732;47.980;11.652;2023-12-20T10:22:58;1.00;;;0.70;;
50757;SDS011;36732;47.980;11.652;2023-12-20T10:25:25;0.55;;;0.43;;
50757;SDS011;36732;47.980;11.652;2023-12-20T10:28:08;1.10;;;0.95;;
50757;SDS011;36732;47.980;11.652;2023-12-20T10:30:39;0.98;;;0.88;;
50757;SDS011;36732;47.980;11.652;2023-12-20T10:33:06;1.33;;;1.05;;
50757;SDS011;36732;47.980;11.652;2023-12-20T10:35:33;1.92;;;1.30;;
50757;SDS011;36732;47.980;11.652;2023-12-20T10:38:00;2.28;;;1.60;;
50757;SDS011;36732;47.980;11.652;2023-12-20T10:40:30;1.00;;;0.80;;
50757;SDS011;36732;47.980;11.652;2023-12-20T10:42:58;0.52;;;0.40;;
50757;SDS011;36732;47.980;11.652;2023-12-20T10:45:26;0.40;;;0.40;;
50757;SDS011;36732;47.980;11.652;2023-12-20T10:47:51;0.40;;;0.40;;
50757;SDS011;36732;47.980;11.652;2023-12-20T10:50:18;0.30;;;0.30;;
50757;SDS011;36732;47.980;11.652;2023-12-20T10:52:45;0.47;;;0.35;;
50757;SDS011;36732;47.980;11.652;2023-12-20T10:55:12;0.40;;;0.40;;
50757;SDS011;36732;47.980;11.652;2023-12-20T10:57:38;0.20;;;0.20;;
50757;SDS011;36732;47.980;11.652;2023-12-20T11:00:06;0.20;;;0.20;;
50757;SDS011;36732;47.980;11.652;2023-12-20T11:02:39;0.70;;;0.30;;
50757;SDS011;36732;47.980;11.652;2023-12-20T11:08:08;0.20;;;0.20;;
50757;SDS011;36732;47.980;11.652;2023-12-20T11:10:54;0.45;;;0.30;;
50757;SDS011;36732;47.980;11.652;2023-12-20T11:13:48;0.52;;;0.30;;
50757;SDS011;36732;47.980;11.652;2023-12-20T11:16:23;0.35;;;0.30;;
50757;SDS011;36732;47.980;11.652;2023-12-20T11:18:50;0.20;;;0.20;;
50757;SDS011;36732;47.980;11.652;2023-12-20T11:21:16;0.98;;;0.22;;
50757;SDS011;36732;47.980;11.652;2023-12-20T11:23:42;0.65;;;0.30;;
50757;SDS011;36732;47.980;11.652;2023-12-20T11:26:08;0.30;;;0.20;;
50757;SDS011;36732;47.980;11.652;2023-12-20T11:28:34;0.20;;;0.20;;
50757;SDS011;36732;47.980;11.652;2023-12-20T11:31:00;0.15;;;0.15;;
50757;SDS011;36732;47.980;11.652;2023-12-20T11:36:12;0.70;;;0.50;;
50757;SDS011;36732;47.980;11.652;2023-12-20T11:38:50;0.20;;;0.20;;
50757;SDS011;36732;47.980;11.652;2023-12-20T11:41:25;0.20;;;0.20;;
50757;SDS011;36732;47.980;11.652;2023-12-20T11:43:55;0.13;;;0.13;;
50757;SDS011;36732;47.980;11.652;2023-12-20T11:46:21;0.20;;;0.20;;
50757;SDS011;36732;47.980;11.652;2023-12-20T11:48:47;0.75;;;0.25;;
50757;SDS011;36732;47.980;11.652;2023-12-20T11:51:13;0.45;;;0.30;;
50757;SDS011;36732;47.980;11.652;2023-12-20T11:53:40;0.40;;;0.30;;
50757;SDS011;36732;47.980;11.652;2023-12-20T11:56:07;0.20;;;0.20;;
50757;SDS011;36732;47.980;11.652;2023-12-20T11:58:34;0.75;;;0.22;;
50757;SDS011;36732;47.980;11.652;2023-12-20T12:01:00;0.10;;;0.10;;
50757;SDS011;36732;47.980;11.652;2023-12-20T12:03:29;0.30;;;0.20;;
50757;SDS011;36732;47.980;11.652;2023-12-20T12:05:55;0.20;;;0.20;;
50757;SDS011;36732;47.980;11.652;2023-12-20T12:08:21;0.30;;;0.30;;
50757;SDS011;36732;47.980;11.652;2023-12-20T12:10:46;1.92;;;0.80;;
50757;SDS011;36732;47.980;11.652;2023-12-20T12:13:12;2.22;;;1.27;;
50757;SDS011;36732;47.980;11.652;2023-12-20T12:15:39;4.22;;;2.20;;
50757;SDS011;36732;47.980;11.652;2023-12-20T12:18:07;2.67;;;1.70;;
50757;SDS011;36732;47.980;11.652;2023-12-20T12:20:33;2.95;;;1.70;;
50757;SDS011;36732;47.980;11.652;2023-12-20T12:23:00;2.33;;;1.40;;
50757;SDS011;36732;47.980;11.652;2023-12-20T12:25:32;3.60;;;2.20;;
50757;SDS011;36732;47.980;11.652;2023-12-20T12:28:01;2.00;;;1.60;;
50757;SDS011;36732;47.980;11.652;2023-12-20T12:30:27;0.90;;;0.60;;
50757;SDS011;36732;47.980;11.652;2023-12-20T12:32:53;1.48;;;0.95;;
50757;SDS011;36732;47.980;11.652;2023-12-20T12:35:21;1.30;;;1.05;;
50757;SDS011;36732;47.980;11.652;2023-12-20T12:37:47;0.90;;;0.77;;
50757;SDS011;36732;47.980;11.652;2023-12-20T12:40:13;4.15;;;2.80;;
50757;SDS011;36732;47.980;11.652;2023-12-20T12:42:41;1.70;;;0.95;;
50757;SDS011;36732;47.980;11.652;2023-12-20T12:45:09;1.95;;;1.40;;
50757;SDS011;36732;47.980;11.652;2023-12-20T12:47:36;1.10;;;1.00;;
50757;SDS011;36732;47.980;11.652;2023-12-20T12:50:02;0.75;;;0.70;;
50757;SDS011;36732;47.980;11.652;2023-12-20T12:52:28;0.75;;;0.75;;
50757;SDS011;36732;47.980;11.652;2023-12-20T12:54:55;2.28;;;1.42;;
50757;SDS011;36732;47.980;11.652;2023-12-20T12:57:21;16.95;;;10.93;;
50757;SDS011;36732;47.980;11.652;2023-12-20T12:59:47;21.88;;;12.50;;
50757;SDS011;36732;47.980;11.652;2023-12-20T13:02:12;20.77;;;11.82;;
50757;SDS011;36732;47.980;11.652;2023-12-20T13:04:39;17.98;;;11.18;;
50757;SDS011;36732;47.980;11.652;2023-12-20T13:07:06;10.57;;;7.43;;
50757;SDS011;36732;47.980;11.652;2023-12-20T13:09:32;9.65;;;6.93;;
50757;SDS011;36732;47.980;11.652;2023-12-20T13:11:58;8.70;;;6.53;;
50757;SDS011;36732;47.980;11.652;2023-12-20T13:14:24;4.05;;;2.78;;
50757;SDS011;36732;47.980;11.652;2023-12-20T13:16:50;2.33;;;2.03;;
50757;SDS011;36732;47.980;11.652;2023-12-20T13:19:16;1.23;;;1.13;;
50757;SDS011;36732;47.980;11.652;2023-12-20T13:21:41;1.05;;;0.80;;
50757;SDS011;36732;47.980;11.652;2023-12-20T13:24:07;0.68;;;0.60;;
50757;SDS011;36732;47.980;11.652;2023-12-20T13:26:33;0.63;;;0.60;;
50757;SDS011;36732;47.980;11.652;2023-12-20T13:28:58;0.60;;;0.55;;
50757;SDS011;36732;47.980;11.652;2023-12-20T13:31:24;0.73;;;0.60;;
50757;SDS011;36732;47.980;11.652;2023-12-20T13:33:50;0.63;;;0.63;;
50757;SDS011;36732;47.980;11.652;2023-12-20T13:36:17;0.50;;;0.40;;
50757;SDS011;36732;47.980;11.652;2023-12-20T13:38:43;1.00;;;0.70;;
50757;SDS011;36732;47.980;11.652;2023-12-20T13:41:08;0.60;;;0.60;;
50757;SDS011;36732;47.980;11.652;2023-12-20T13:43:34;1.35;;;0.70;;
50757;SDS011;36732;47.980;11.652;2023-12-20T13:46:00;0.68;;;0.68;;
50757;SDS011;36732;47.980;11.652;2023-12-20T13:48:26;0.70;;;0.60;;
50757;SDS011;36732;47.980;11.652;2023-12-20T13:50:52;0.55;;;0.55;;
50757;SDS011;36732;47.980;11.652;2023-12-20T13:53:17;0.93;;;0.60;;
50757;SDS011;36732;47.980;11.652;2023-12-20T13:55:44;0.60;;;0.55;;
50757;SDS011;36732;47.980;11.652;2023-12-20T13:58:10;0.50;;;0.50;;
50757;SDS011;36732;47.980;11.652;2023-12-20T14:00:35;0.70;;;0.63;;
50757;SDS011;36732;47.980;11.652;2023-12-20T14:03:02;0.60;;;0.50;;
50757;SDS011;36732;47.980;11.652;2023-12-20T14:05:29;0.70;;;0.60;;
50757;SDS011;36732;47.980;11.652;2023-12-20T14:07:55;0.40;;;0.40;;
50757;SDS011;36732;47.980;11.652;2023-12-20T14:10:23;0.63;;;0.60;;
50757;SDS011;36732;47.980;11.652;2023-12-20T14:12:51;0.60;;;0.55;;
50757;SDS011;36732;47.980;11.652;2023-12-20T14:15:18;1.95;;;0.50;;
50757;SDS011;36732;47.980;11.652;2023-12-20T14:17:43;0.55;;;0.52;;
50757;SDS011;36732;47.980;11.652;2023-12-20T14:20:09;0.80;;;0.43;;
50757;SDS011;36732;47.980;11.652;2023-12-20T14:22:37;0.80;;;0.80;;
50757;SDS011;36732;47.980;11.652;2023-12-20T14:25:03;1.38;;;0.93;;
50757;SDS011;36732;47.980;11.652;2023-12-20T14:27:31;1.20;;;1.08;;
50757;SDS011;36732;47.980;11.652;2023-12-20T14:29:57;0.60;;;0.60;;
50757;SDS011;36732;47.980;11.652;2023-12-20T14:32:23;1.33;;;1.00;;
50757;SDS011;36732;47.980;11.652;2023-12-20T14:34:49;2.08;;;1.30;;